sensor_id;sensor_type;location;lat;lon;timestamp;temperature;humidity
55795;DHT22;41716;51.910;4.430;2022-12-24T00:00:48;10.20;99.90
55795;DHT22;41716;51.910;4.430;2022-12-24T00:05:50;10.60;99.90
55795;DHT22;41716;51.910;4.430;2022-12-24T00:10:53;10.20;99.90
55795;DHT22;41716;51.910;4.430;2022-12-24T00:15:55;10.40;99.90
55795;DHT22;41716;51.910;4.430;2022-12-24T00:20:57;10.50;99.90
55795;DHT22;41716;51.910;4.430;2022-12-24T00:26:02;9.90;99.90
55795;DHT22;41716;51.910;4.430;2022-12-24T00:31:09;10.10;99.90
55795;DHT22;41716;51.910;4.430;2022-12-24T00:36:10;9.60;99.90
55795;DHT22;41716;51.910;4.430;2022-12-24T00:41:14;9.80;99.90
55795;DHT22;41716;51.910;4.430;2022-12-24T00:46:25;10.20;99.90
55795;DHT22;41716;51.910;4.430;2022-12-24T00:51:27;9.80;99.90
55795;DHT22;41716;51.910;4.430;2022-12-24T00:56:30;9.70;99.90
55795;DHT22;41716;51.910;4.430;2022-12-24T01:01:32;10.40;99.90
55795;DHT22;41716;51.910;4.430;2022-12-24T01:06:35;9.70;99.90
55795;DHT22;41716;51.910;4.430;2022-12-24T01:11:38;10.10;99.90
55795;DHT22;41716;51.910;4.430;2022-12-24T01:16:39;10.30;99.90
55795;DHT22;41716;51.910;4.430;2022-12-24T01:21:44;9.80;99.90
55795;DHT22;41716;51.910;4.430;2022-12-24T01:26:47;9.80;99.90
55795;DHT22;41716;51.910;4.430;2022-12-24T01:31:48;9.80;99.90
55795;DHT22;41716;51.910;4.430;2022-12-24T01:36:50;9.50;99.90
55795;DHT22;41716;51.910;4.430;2022-12-24T01:41:53;9.20;99.90
55795;DHT22;41716;51.910;4.430;2022-12-24T01:47:15;9.30;99.90
55795;DHT22;41716;51.910;4.430;2022-12-24T01:52:20;9.20;99.90
55795;DHT22;41716;51.910;4.430;2022-12-24T01:57:26;10.00;99.90
55795;DHT22;41716;51.910;4.430;2022-12-24T02:02:28;9.10;99.90
55795;DHT22;41716;51.910;4.430;2022-12-24T02:07:33;9.90;99.90
55795;DHT22;41716;51.910;4.430;2022-12-24T02:12:37;9.10;99.90
55795;DHT22;41716;51.910;4.430;2022-12-24T02:17:48;9.30;99.90
55795;DHT22;41716;51.910;4.430;2022-12-24T02:28:28;9.80;99.90
55795;DHT22;41716;51.910;4.430;2022-12-24T02:33:44;9.30;99.90
55795;DHT22;41716;51.910;4.430;2022-12-24T02:38:51;9.60;99.90
55795;DHT22;41716;51.910;4.430;2022-12-24T02:43:56;9.40;99.90
55795;DHT22;41716;51.910;4.430;2022-12-24T02:49:00;10.70;99.90
55795;DHT22;41716;51.910;4.430;2022-12-24T02:54:02;10.30;99.90
55795;DHT22;41716;51.910;4.430;2022-12-24T02:59:16;9.30;99.90
55795;DHT22;41716;51.910;4.430;2022-12-24T03:04:27;9.30;99.90
55795;DHT22;41716;51.910;4.430;2022-12-24T03:09:52;10.80;99.90
55795;DHT22;41716;51.910;4.430;2022-12-24T03:14:57;10.60;99.90
55795;DHT22;41716;51.910;4.430;2022-12-24T03:20:00;10.30;99.90
55795;DHT22;41716;51.910;4.430;2022-12-24T03:25:03;11.00;99.90
55795;DHT22;41716;51.910;4.430;2022-12-24T03:30:09;10.70;99.90
55795;DHT22;41716;51.910;4.430;2022-12-24T03:35:12;10.90;99.90
55795;DHT22;41716;51.910;4.430;2022-12-24T03:40:14;9.60;99.90
55795;DHT22;41716;51.910;4.430;2022-12-24T03:45:16;10.50;99.90
55795;DHT22;41716;51.910;4.430;2022-12-24T03:50:19;11.00;99.90
55795;DHT22;41716;51.910;4.430;2022-12-24T03:55:21;10.90;99.90
55795;DHT22;41716;51.910;4.430;2022-12-24T04:00:23;10.50;99.90
55795;DHT22;41716;51.910;4.430;2022-12-24T04:05:26;10.70;99.90
55795;DHT22;41716;51.910;4.430;2022-12-24T04:10:28;10.70;99.90
55795;DHT22;41716;51.910;4.430;2022-12-24T04:15:29;10.20;99.90
55795;DHT22;41716;51.910;4.430;2022-12-24T04:20:32;9.40;99.90
55795;DHT22;41716;51.910;4.430;2022-12-24T04:25:34;10.80;99.90
55795;DHT22;41716;51.910;4.430;2022-12-24T04:30:37;9.40;99.90
55795;DHT22;41716;51.910;4.430;2022-12-24T04:35:41;10.10;99.90
55795;DHT22;41716;51.910;4.430;2022-12-24T04:40:42;10.50;99.90
55795;DHT22;41716;51.910;4.430;2022-12-24T04:45:44;10.20;99.90
55795;DHT22;41716;51.910;4.430;2022-12-24T04:50:47;10.90;99.90
55795;DHT22;41716;51.910;4.430;2022-12-24T04:55:49;9.60;99.90
55795;DHT22;41716;51.910;4.430;2022-12-24T05:00:51;9.90;99.90
55795;DHT22;41716;51.910;4.430;2022-12-24T05:06:00;10.20;99.90
55795;DHT22;41716;51.910;4.430;2022-12-24T05:11:02;10.00;99.90
55795;DHT22;41716;51.910;4.430;2022-12-24T05:16:04;10.90;99.90
55795;DHT22;41716;51.910;4.430;2022-12-24T05:21:09;9.50;99.90
55795;DHT22;41716;51.910;4.430;2022-12-24T05:26:14;10.50;99.90
55795;DHT22;41716;51.910;4.430;2022-12-24T05:31:24;10.70;99.90
55795;DHT22;41716;51.910;4.430;2022-12-24T05:36:28;9.70;99.90
55795;DHT22;41716;51.910;4.430;2022-12-24T05:41:30;10.60;99.90
55795;DHT22;41716;51.910;4.430;2022-12-24T05:46:31;10.40;99.90
55795;DHT22;41716;51.910;4.430;2022-12-24T05:51:35;10.30;99.90
55795;DHT22;41716;51.910;4.430;2022-12-24T05:56:36;11.00;99.90
55795;DHT22;41716;51.910;4.430;2022-12-24T06:01:38;11.10;99.90
55795;DHT22;41716;51.910;4.430;2022-12-24T06:06:41;9.50;99.90
55795;DHT22;41716;51.910;4.430;2022-12-24T06:11:43;10.50;99.90
55795;DHT22;41716;51.910;4.430;2022-12-24T06:16:45;10.40;99.90
55795;DHT22;41716;51.910;4.430;2022-12-24T06:21:48;10.20;99.90
55795;DHT22;41716;51.910;4.430;2022-12-24T06:26:49;10.30;99.90
55795;DHT22;41716;51.910;4.430;2022-12-24T06:31:51;10.60;99.90
55795;DHT22;41716;51.910;4.430;2022-12-24T06:36:54;9.40;99.90
55795;DHT22;41716;51.910;4.430;2022-12-24T06:41:56;9.40;99.90
55795;DHT22;41716;51.910;4.430;2022-12-24T06:46:57;10.40;99.90
55795;DHT22;41716;51.910;4.430;2022-12-24T06:52:00;9.80;99.90
55795;DHT22;41716;51.910;4.430;2022-12-24T06:57:02;9.00;99.90
55795;DHT22;41716;51.910;4.430;2022-12-24T07:02:04;10.80;99.90
55795;DHT22;41716;51.910;4.430;2022-12-24T07:07:07;10.70;99.90
55795;DHT22;41716;51.910;4.430;2022-12-24T07:12:09;9.30;99.90
55795;DHT22;41716;51.910;4.430;2022-12-24T07:17:10;9.20;99.90
55795;DHT22;41716;51.910;4.430;2022-12-24T07:22:14;10.00;99.90
55795;DHT22;41716;51.910;4.430;2022-12-24T07:27:15;10.30;99.90
55795;DHT22;41716;51.910;4.430;2022-12-24T07:32:17;9.60;99.90
55795;DHT22;41716;51.910;4.430;2022-12-24T07:37:21;9.30;99.90
55795;DHT22;41716;51.910;4.430;2022-12-24T07:42:22;9.40;99.90
55795;DHT22;41716;51.910;4.430;2022-12-24T07:47:24;9.40;99.90
55795;DHT22;41716;51.910;4.430;2022-12-24T07:52:27;10.90;99.90
55795;DHT22;41716;51.910;4.430;2022-12-24T07:57:29;9.40;99.90
55795;DHT22;41716;51.910;4.430;2022-12-24T08:02:31;10.50;99.90
55795;DHT22;41716;51.910;4.430;2022-12-24T08:07:34;9.60;99.90
55795;DHT22;41716;51.910;4.430;2022-12-24T08:12:35;9.30;99.90
55795;DHT22;41716;51.910;4.430;2022-12-24T08:17:37;10.90;99.90
55795;DHT22;41716;51.910;4.430;2022-12-24T08:22:40;10.20;99.90
55795;DHT22;41716;51.910;4.430;2022-12-24T08:27:42;10.90;99.90
55795;DHT22;41716;51.910;4.430;2022-12-24T08:32:43;9.40;99.90
55795;DHT22;41716;51.910;4.430;2022-12-24T08:37:46;10.60;99.90
55795;DHT22;41716;51.910;4.430;2022-12-24T08:42:48;10.60;99.90
55795;DHT22;41716;51.910;4.430;2022-12-24T08:47:50;9.50;99.90
55795;DHT22;41716;51.910;4.430;2022-12-24T08:52:53;9.60;99.90
55795;DHT22;41716;51.910;4.430;2022-12-24T08:57:54;9.50;99.90
55795;DHT22;41716;51.910;4.430;2022-12-24T09:02:56;10.80;99.90
55795;DHT22;41716;51.910;4.430;2022-12-24T09:08:00;9.70;99.90
55795;DHT22;41716;51.910;4.430;2022-12-24T09:13:02;10.20;99.90
55795;DHT22;41716;51.910;4.430;2022-12-24T09:18:04;10.60;99.90
55795;DHT22;41716;51.910;4.430;2022-12-24T09:23:07;10.90;99.90
55795;DHT22;41716;51.910;4.430;2022-12-24T09:28:09;10.20;99.90
55795;DHT22;41716;51.910;4.430;2022-12-24T09:33:11;9.90;99.90
55795;DHT22;41716;51.910;4.430;2022-12-24T09:38:14;11.20;99.90
55795;DHT22;41716;51.910;4.430;2022-12-24T09:43:18;9.80;99.90
55795;DHT22;41716;51.910;4.430;2022-12-24T09:48:23;9.90;99.90
55795;DHT22;41716;51.910;4.430;2022-12-24T09:53:34;10.70;99.90
55795;DHT22;41716;51.910;4.430;2022-12-24T09:58:40;10.00;99.90
55795;DHT22;41716;51.910;4.430;2022-12-24T10:03:44;9.90;99.90
55795;DHT22;41716;51.910;4.430;2022-12-24T10:08:58;11.00;99.90
55795;DHT22;41716;51.910;4.430;2022-12-24T10:14:15;11.20;99.90
55795;DHT22;41716;51.910;4.430;2022-12-24T10:19:24;10.30;99.90
55795;DHT22;41716;51.910;4.430;2022-12-24T10:24:36;11.20;99.90
55795;DHT22;41716;51.910;4.430;2022-12-24T10:29:42;10.20;99.90
55795;DHT22;41716;51.910;4.430;2022-12-24T10:34:52;11.70;99.90
55795;DHT22;41716;51.910;4.430;2022-12-24T10:39:57;11.00;99.90
55795;DHT22;41716;51.910;4.430;2022-12-24T10:45:03;11.50;99.90
55795;DHT22;41716;51.910;4.430;2022-12-24T10:50:12;11.30;99.90
55795;DHT22;41716;51.910;4.430;2022-12-24T10:55:22;11.00;99.90
55795;DHT22;41716;51.910;4.430;2022-12-24T11:00:24;11.00;99.90
55795;DHT22;41716;51.910;4.430;2022-12-24T11:05:29;11.60;99.90
55795;DHT22;41716;51.910;4.430;2022-12-24T11:10:35;11.00;99.90
55795;DHT22;41716;51.910;4.430;2022-12-24T11:15:37;11.70;99.90
55795;DHT22;41716;51.910;4.430;2022-12-24T11:20:39;12.80;99.90
55795;DHT22;41716;51.910;4.430;2022-12-24T11:25:47;12.80;99.90
55795;DHT22;41716;51.910;4.430;2022-12-24T11:31:01;13.00;99.90
55795;DHT22;41716;51.910;4.430;2022-12-24T11:36:05;12.20;99.90
55795;DHT22;41716;51.910;4.430;2022-12-24T11:41:13;12.30;99.90
55795;DHT22;41716;51.910;4.430;2022-12-24T11:46:33;11.80;99.90
55795;DHT22;41716;51.910;4.430;2022-12-24T11:51:37;12.20;99.90
55795;DHT22;41716;51.910;4.430;2022-12-24T11:56:44;12.40;99.90
55795;DHT22;41716;51.910;4.430;2022-12-24T12:01:53;12.40;99.90
55795;DHT22;41716;51.910;4.430;2022-12-24T12:06:57;13.10;99.90
55795;DHT22;41716;51.910;4.430;2022-12-24T12:12:06;13.80;99.90
55795;DHT22;41716;51.910;4.430;2022-12-24T12:17:15;13.10;99.90
55795;DHT22;41716;51.910;4.430;2022-12-24T12:22:25;12.80;99.90
55795;DHT22;41716;51.910;4.430;2022-12-24T12:27:34;13.40;99.90
55795;DHT22;41716;51.910;4.430;2022-12-24T12:32:44;13.20;99.90
55795;DHT22;41716;51.910;4.430;2022-12-24T12:37:54;13.00;99.90
55795;DHT22;41716;51.910;4.430;2022-12-24T12:43:01;14.50;99.90
55795;DHT22;41716;51.910;4.430;2022-12-24T12:48:25;15.30;99.90
55795;DHT22;41716;51.910;4.430;2022-12-24T12:53:44;15.70;99.90
55795;DHT22;41716;51.910;4.430;2022-12-24T12:58:51;14.70;99.90
55795;DHT22;41716;51.910;4.430;2022-12-24T13:04:16;13.70;99.90
55795;DHT22;41716;51.910;4.430;2022-12-24T13:09:47;13.90;99.90
55795;DHT22;41716;51.910;4.430;2022-12-24T13:15:06;14.70;99.90
55795;DHT22;41716;51.910;4.430;2022-12-24T13:20:23;14.30;99.90
55795;DHT22;41716;51.910;4.430;2022-12-24T13:25:30;13.90;99.90
55795;DHT22;41716;51.910;4.430;2022-12-24T13:30:36;13.50;99.90
55795;DHT22;41716;51.910;4.430;2022-12-24T13:35:57;13.60;99.90
55795;DHT22;41716;51.910;4.430;2022-12-24T13:46:48;13.50;99.90
55795;DHT22;41716;51.910;4.430;2022-12-24T13:51:50;13.30;99.90
55795;DHT22;41716;51.910;4.430;2022-12-24T13:57:24;13.40;99.90
55795;DHT22;41716;51.910;4.430;2022-12-24T14:02:32;13.20;99.90
55795;DHT22;41716;51.910;4.430;2022-12-24T14:07:35;13.50;99.90
55795;DHT22;41716;51.910;4.430;2022-12-24T14:12:48;13.40;99.90
55795;DHT22;41716;51.910;4.430;2022-12-24T14:17:52;12.90;99.90
55795;DHT22;41716;51.910;4.430;2022-12-24T14:22:54;13.10;99.90
55795;DHT22;41716;51.910;4.430;2022-12-24T14:28:02;13.00;99.90
55795;DHT22;41716;51.910;4.430;2022-12-24T14:33:29;13.30;99.90
55795;DHT22;41716;51.910;4.430;2022-12-24T14:38:31;13.00;99.90
55795;DHT22;41716;51.910;4.430;2022-12-24T14:43:47;12.80;99.90
55795;DHT22;41716;51.910;4.430;2022-12-24T14:48:56;12.50;99.90
55795;DHT22;41716;51.910;4.430;2022-12-24T14:54:25;12.60;99.90
55795;DHT22;41716;51.910;4.430;2022-12-24T14:59:29;12.70;99.90
55795;DHT22;41716;51.910;4.430;2022-12-24T15:04:32;12.00;99.90
55795;DHT22;41716;51.910;4.430;2022-12-24T15:09:34;12.20;99.90
55795;DHT22;41716;51.910;4.430;2022-12-24T15:14:41;12.30;99.90
55795;DHT22;41716;51.910;4.430;2022-12-24T15:19:46;12.00;99.90
55795;DHT22;41716;51.910;4.430;2022-12-24T15:24:48;12.00;99.90
55795;DHT22;41716;51.910;4.430;2022-12-24T15:29:51;11.80;99.90
55795;DHT22;41716;51.910;4.430;2022-12-24T15:34:55;11.80;99.90
55795;DHT22;41716;51.910;4.430;2022-12-24T15:39:59;11.10;99.90
55795;DHT22;41716;51.910;4.430;2022-12-24T15:45:05;11.70;99.90
55795;DHT22;41716;51.910;4.430;2022-12-24T15:50:14;10.90;99.90
55795;DHT22;41716;51.910;4.430;2022-12-24T15:55:25;11.10;99.90
55795;DHT22;41716;51.910;4.430;2022-12-24T16:00:27;10.90;99.90
55795;DHT22;41716;51.910;4.430;2022-12-24T16:05:34;11.70;99.90
55795;DHT22;41716;51.910;4.430;2022-12-24T16:10:38;11.50;99.90
55795;DHT22;41716;51.910;4.430;2022-12-24T16:15:46;10.60;99.90
55795;DHT22;41716;51.910;4.430;2022-12-24T16:20:51;10.70;99.90
55795;DHT22;41716;51.910;4.430;2022-12-24T16:25:53;11.10;99.90
55795;DHT22;41716;51.910;4.430;2022-12-24T16:30:55;11.60;99.90
55795;DHT22;41716;51.910;4.430;2022-12-24T16:35:58;11.00;99.90
55795;DHT22;41716;51.910;4.430;2022-12-24T16:41:00;11.40;99.90
55795;DHT22;41716;51.910;4.430;2022-12-24T16:46:04;10.60;99.90
55795;DHT22;41716;51.910;4.430;2022-12-24T16:51:08;10.90;99.90
55795;DHT22;41716;51.910;4.430;2022-12-24T16:56:09;11.60;99.90
55795;DHT22;41716;51.910;4.430;2022-12-24T17:01:11;11.20;99.90
55795;DHT22;41716;51.910;4.430;2022-12-24T17:06:14;11.30;99.90
55795;DHT22;41716;51.910;4.430;2022-12-24T17:11:16;10.50;99.90
55795;DHT22;41716;51.910;4.430;2022-12-24T17:16:22;11.50;99.90
55795;DHT22;41716;51.910;4.430;2022-12-24T17:21:25;10.90;99.90
55795;DHT22;41716;51.910;4.430;2022-12-24T17:26:26;10.10;99.90
55795;DHT22;41716;51.910;4.430;2022-12-24T17:31:28;10.30;99.90
55795;DHT22;41716;51.910;4.430;2022-12-24T17:36:31;10.40;99.90
55795;DHT22;41716;51.910;4.430;2022-12-24T17:41:33;9.90;99.90
55795;DHT22;41716;51.910;4.430;2022-12-24T17:46:35;10.20;99.90
55795;DHT22;41716;51.910;4.430;2022-12-24T17:51:38;10.50;99.90
55795;DHT22;41716;51.910;4.430;2022-12-24T17:56:40;11.10;99.90
55795;DHT22;41716;51.910;4.430;2022-12-24T18:01:42;9.90;99.90
55795;DHT22;41716;51.910;4.430;2022-12-24T18:06:45;10.30;99.90
55795;DHT22;41716;51.910;4.430;2022-12-24T18:11:46;10.20;99.90
55795;DHT22;41716;51.910;4.430;2022-12-24T18:16:48;10.50;99.90
55795;DHT22;41716;51.910;4.430;2022-12-24T18:21:51;10.20;99.90
55795;DHT22;41716;51.910;4.430;2022-12-24T18:26:53;11.10;99.90
55795;DHT22;41716;51.910;4.430;2022-12-24T18:31:56;11.30;99.90
55795;DHT22;41716;51.910;4.430;2022-12-24T18:36:59;10.10;99.90
55795;DHT22;41716;51.910;4.430;2022-12-24T18:42:00;9.80;99.90
55795;DHT22;41716;51.910;4.430;2022-12-24T18:47:02;9.70;99.90
55795;DHT22;41716;51.910;4.430;2022-12-24T18:52:07;10.90;99.90
55795;DHT22;41716;51.910;4.430;2022-12-24T18:57:09;10.40;99.90
55795;DHT22;41716;51.910;4.430;2022-12-24T19:02:11;9.60;99.90
55795;DHT22;41716;51.910;4.430;2022-12-24T19:07:14;10.60;99.90
55795;DHT22;41716;51.910;4.430;2022-12-24T19:12:15;10.90;99.90
55795;DHT22;41716;51.910;4.430;2022-12-24T19:17:17;10.70;99.90
55795;DHT22;41716;51.910;4.430;2022-12-24T19:22:20;9.90;99.90
55795;DHT22;41716;51.910;4.430;2022-12-24T19:27:22;11.00;99.90
55795;DHT22;41716;51.910;4.430;2022-12-24T19:32:23;11.10;99.90
55795;DHT22;41716;51.910;4.430;2022-12-24T19:37:28;9.60;99.90
55795;DHT22;41716;51.910;4.430;2022-12-24T19:42:30;11.10;99.90
55795;DHT22;41716;51.910;4.430;2022-12-24T19:47:31;11.00;99.90
55795;DHT22;41716;51.910;4.430;2022-12-24T19:52:34;10.90;99.90
55795;DHT22;41716;51.910;4.430;2022-12-24T19:57:36;9.80;99.90
55795;DHT22;41716;51.910;4.430;2022-12-24T20:02:38;10.40;99.90
55795;DHT22;41716;51.910;4.430;2022-12-24T20:07:41;11.00;99.90
55795;DHT22;41716;51.910;4.430;2022-12-24T20:12:43;9.80;99.90
55795;DHT22;41716;51.910;4.430;2022-12-24T20:17:45;10.70;99.90
55795;DHT22;41716;51.910;4.430;2022-12-24T20:22:52;9.80;99.90
55795;DHT22;41716;51.910;4.430;2022-12-24T20:27:54;10.50;99.90
55795;DHT22;41716;51.910;4.430;2022-12-24T20:32:57;9.70;99.90
55795;DHT22;41716;51.910;4.430;2022-12-24T20:38:00;9.90;99.90
55795;DHT22;41716;51.910;4.430;2022-12-24T20:43:01;9.80;99.90
55795;DHT22;41716;51.910;4.430;2022-12-24T20:48:04;9.80;99.90
55795;DHT22;41716;51.910;4.430;2022-12-24T20:53:07;9.70;99.90
55795;DHT22;41716;51.910;4.430;2022-12-24T20:58:10;9.80;99.90
55795;DHT22;41716;51.910;4.430;2022-12-24T21:03:12;10.40;99.90
55795;DHT22;41716;51.910;4.430;2022-12-24T21:08:16;10.00;99.90
55795;DHT22;41716;51.910;4.430;2022-12-24T21:13:17;10.50;99.90
55795;DHT22;41716;51.910;4.430;2022-12-24T21:18:19;10.50;99.90
55795;DHT22;41716;51.910;4.430;2022-12-24T21:23:23;9.60;99.90
55795;DHT22;41716;51.910;4.430;2022-12-24T21:28:26;9.50;99.90
55795;DHT22;41716;51.910;4.430;2022-12-24T21:33:29;9.30;99.90
55795;DHT22;41716;51.910;4.430;2022-12-24T21:38:33;9.70;99.90
55795;DHT22;41716;51.910;4.430;2022-12-24T21:43:35;10.30;99.90
55795;DHT22;41716;51.910;4.430;2022-12-24T21:48:37;9.50;99.90
55795;DHT22;41716;51.910;4.430;2022-12-24T21:53:59;9.60;99.90
55795;DHT22;41716;51.910;4.430;2022-12-24T21:59:18;10.70;99.90
55795;DHT22;41716;51.910;4.430;2022-12-24T22:04:19;9.50;99.90
55795;DHT22;41716;51.910;4.430;2022-12-24T22:09:22;11.10;99.90
55795;DHT22;41716;51.910;4.430;2022-12-24T22:14:42;11.00;99.90
55795;DHT22;41716;51.910;4.430;2022-12-24T22:19:44;9.80;99.90
55795;DHT22;41716;51.910;4.430;2022-12-24T22:24:47;10.60;99.90
55795;DHT22;41716;51.910;4.430;2022-12-24T22:29:48;9.80;99.90
55795;DHT22;41716;51.910;4.430;2022-12-24T22:34:50;9.90;99.90
55795;DHT22;41716;51.910;4.430;2022-12-24T22:39:54;10.80;99.90
55795;DHT22;41716;51.910;4.430;2022-12-24T22:44:56;9.30;99.90
55795;DHT22;41716;51.910;4.430;2022-12-24T22:49:57;11.00;99.90
55795;DHT22;41716;51.910;4.430;2022-12-24T22:55:01;9.70;99.90
55795;DHT22;41716;51.910;4.430;2022-12-24T23:00:09;10.10;99.90
55795;DHT22;41716;51.910;4.430;2022-12-24T23:05:13;9.70;99.90
55795;DHT22;41716;51.910;4.430;2022-12-24T23:10:16;11.10;99.90
55795;DHT22;41716;51.910;4.430;2022-12-24T23:15:18;9.60;99.90
55795;DHT22;41716;51.910;4.430;2022-12-24T23:20:19;9.70;99.90
55795;DHT22;41716;51.910;4.430;2022-12-24T23:25:23;10.60;99.90
55795;DHT22;41716;51.910;4.430;2022-12-24T23:30:24;9.90;99.90
55795;DHT22;41716;51.910;4.430;2022-12-24T23:35:26;10.50;99.90
55795;DHT22;41716;51.910;4.430;2022-12-24T23:40:29;10.20;99.90
55795;DHT22;41716;51.910;4.430;2022-12-24T23:45:31;11.10;99.90
55795;DHT22;41716;51.910;4.430;2022-12-24T23:50:33;9.70;99.90
55795;DHT22;41716;51.910;4.430;2022-12-24T23:55:36;10.10;99.90
